Darstellungsparameter: Aktuell verwendete Einstellungen:
Skalierung der Graphiken ... ?
xyx+y,   Skalierungsfaktor:      Skalierung: Modus: x, Faktor: 1
Darstellungszeitraum ... ?
Vom - - bis: - -   Zeitraum: 19.10.2019 - 19.10.2019
Min/Max/Avg-Anzeige ... ?
Zeige MMA aktuell
Zeige MMA Monat
Zeige MMA alles
Zeige --A aktuell
Zeige --A Monat
Zeige --A alles
Keine MMA-Anzeige
MMA:
Average (ber die Originaldaten)
MMA-Basis: 19.10.2019 - 19.10.2019
Quicknavigation für Darstellung... ?
Tage:      1T, 2T, 3T, 5T -1T -2T -3T -5T +1T +2T +3T +5T
Wochen: 1W, 2W, 3W -1W -2W -3W +1W +2W +3W
Monate: 1M, 3M, 6M -1M -3M -6M +1M +3M +6M
Jahre:    1J, 3J, 5J, 10J -1J -3J -5J -10J +1J +3J +5J +10J
Nutze für die Darstellung ... ?
Originaldaten oder Mittelwerte auf ...
Stundenbasis Tagesbasis Wochenbasis
Monatsbasis Jahresbasis      Datenbasis: Original-Daten
Darstellen als:
Statistik (Auto) Statistik J:M      Darstellung:
Zur Graphik,    zurück zur Übersicht aller Sensoren.
 
Tabellarische Datenbersicht: ?
 
Sensor: Nr:Datum:Temp:Abs-Feuchte:Windchill:Wind:
Aussen-T/F 1 19-10-2019 00:00:00 8.9 C 8.32 g/m*3 8.9 C 0 km/h
2 19-10-2019 00:05:00 8.9 C 8.32 g/m*3 8.9 C 0 km/h
3 19-10-2019 00:10:00 8.9 C 8.32 g/m*3 8.9 C 1.6 km/h
4 19-10-2019 00:15:00 8.9 C 8.32 g/m*3 8.9 C 0 km/h
5 19-10-2019 00:20:00 9 C 8.38 g/m*3 9 C 0 km/h
6 19-10-2019 00:25:00 9.1 C 8.52 g/m*3 9.1 C 0 km/h
7 19-10-2019 00:30:00 9.3 C 8.63 g/m*3 9.3 C 0 km/h
8 19-10-2019 00:35:00 9.3 C 8.63 g/m*3 9.3 C 1.6 km/h
9 19-10-2019 00:40:00 9.3 C 8.54 g/m*3 9.3 C 1.6 km/h
10 19-10-2019 00:45:00 9.3 C 8.54 g/m*3 9.3 C 0 km/h
11 19-10-2019 00:50:00 9.4 C 8.59 g/m*3 9.4 C 1.6 km/h
12 19-10-2019 00:55:00 9.4 C 8.59 g/m*3 9.4 C 1.6 km/h
13 19-10-2019 01:00:00 9.4 C 8.59 g/m*3 9.4 C 0 km/h
14 19-10-2019 01:05:00 9.4 C 8.59 g/m*3 9.4 C 1.6 km/h
15 19-10-2019 01:10:00 9.5 C 8.65 g/m*3 9.5 C 0 km/h
16 19-10-2019 01:15:00 9.6 C 8.7 g/m*3 9.6 C 0 km/h
17 19-10-2019 01:20:00 9.6 C 8.7 g/m*3 9.6 C 0 km/h
18 19-10-2019 01:25:00 9.7 C 8.76 g/m*3 9.7 C 1.6 km/h
19 19-10-2019 01:30:00 9.8 C 8.72 g/m*3 9.8 C 0 km/h
20 19-10-2019 01:35:00 9.8 C 8.72 g/m*3 9.8 C 0 km/h
21 19-10-2019 01:40:00 9.8 C 8.72 g/m*3 9.8 C 0 km/h
22 19-10-2019 01:45:00 9.7 C 8.67 g/m*3 9.7 C 0 km/h
23 19-10-2019 01:50:00 9.7 C 8.67 g/m*3 9.7 C 1.6 km/h
24 19-10-2019 01:55:00 9.7 C 8.67 g/m*3 9.7 C 0 km/h
25 19-10-2019 02:00:00 9.6 C 8.61 g/m*3 9.6 C 0 km/h
Sensor: Nr:Datum:Temp:Abs-Feuchte:Windchill:Wind:
Aussen-T/F 26 19-10-2019 02:05:00 9.6 C 8.61 g/m*3 9.6 C 0 km/h
27 19-10-2019 02:10:00 9.6 C 8.61 g/m*3 9.6 C 0 km/h
28 19-10-2019 02:15:00 9.6 C 8.61 g/m*3 9.6 C 0 km/h
29 19-10-2019 02:20:00 9.6 C 8.61 g/m*3 9.6 C 0 km/h
30 19-10-2019 02:25:00 9.6 C 8.61 g/m*3 9.6 C 0 km/h
31 19-10-2019 02:30:00 9.7 C 8.67 g/m*3 9.7 C 0 km/h
32 19-10-2019 02:35:00 9.7 C 8.76 g/m*3 9.7 C 0 km/h
33 19-10-2019 02:40:00 9.7 C 8.76 g/m*3 9.7 C 0 km/h
34 19-10-2019 02:45:00 9.7 C 8.76 g/m*3 9.7 C 0 km/h
35 19-10-2019 02:50:00 9.7 C 8.67 g/m*3 9.7 C 0 km/h
36 19-10-2019 02:55:00 9.8 C 8.72 g/m*3 9.8 C 0 km/h
37 19-10-2019 03:00:00 9.8 C 8.72 g/m*3 9.8 C 0 km/h
38 19-10-2019 03:05:00 9.8 C 8.72 g/m*3 9.8 C 0 km/h
39 19-10-2019 03:10:00 9.8 C 8.72 g/m*3 9.8 C 0 km/h
40 19-10-2019 03:15:00 9.8 C 8.72 g/m*3 9.8 C 0 km/h
41 19-10-2019 03:20:00 9.8 C 8.72 g/m*3 9.8 C 0 km/h
42 19-10-2019 03:25:00 9.9 C 8.78 g/m*3 9.9 C 0 km/h
43 19-10-2019 03:30:00 9.9 C 8.78 g/m*3 9.9 C 0 km/h
44 19-10-2019 03:35:00 9.9 C 8.78 g/m*3 9.9 C 0 km/h
45 19-10-2019 03:40:00 9.9 C 8.78 g/m*3 9.9 C 0 km/h
46 19-10-2019 03:45:00 9.9 C 8.78 g/m*3 9.9 C 0 km/h
47 19-10-2019 03:50:00 10 C 8.83 g/m*3 10 C 0 km/h
48 19-10-2019 03:55:00 10 C 8.83 g/m*3 10 C 0 km/h
49 19-10-2019 04:00:00 10 C 8.83 g/m*3 10 C 0 km/h
50 19-10-2019 04:05:00 10 C 8.83 g/m*3 10 C 1.6 km/h
Sensor: Nr:Datum:Temp:Abs-Feuchte:Windchill:Wind:
Aussen-T/F 51 19-10-2019 04:10:00 10 C 8.83 g/m*3 10 C 0 km/h
52 19-10-2019 04:15:00 10 C 8.83 g/m*3 10 C 0 km/h
53 19-10-2019 04:20:00 10 C 8.83 g/m*3 10 C 0 km/h
54 19-10-2019 04:25:00 10.1 C 8.89 g/m*3 10.1 C 0 km/h
55 19-10-2019 04:30:00 10.1 C 8.89 g/m*3 10.1 C 0 km/h
56 19-10-2019 04:35:00 10.2 C 8.95 g/m*3 10.2 C 0 km/h
57 19-10-2019 04:40:00 10.2 C 8.95 g/m*3 10.2 C 0 km/h
58 19-10-2019 04:45:00 10.2 C 8.95 g/m*3 10.2 C 1.6 km/h
59 19-10-2019 04:50:00 10.2 C 8.95 g/m*3 10.2 C 3.2 km/h
60 19-10-2019 04:55:00 10.3 C 9 g/m*3 10.3 C 0 km/h
61 19-10-2019 05:00:00 10.4 C 9.06 g/m*3 10.4 C 0 km/h
62 19-10-2019 05:05:00 10.4 C 9.06 g/m*3 10.4 C 3.2 km/h
63 19-10-2019 05:10:00 10.6 C 9.17 g/m*3 10.6 C 1.6 km/h
64 19-10-2019 05:15:00 10.6 C 9.17 g/m*3 10.6 C 0 km/h
65 19-10-2019 05:20:00 10.7 C 9.23 g/m*3 10.7 C 0 km/h
66 19-10-2019 05:25:00 10.7 C 9.23 g/m*3 10.7 C 4.8 km/h
67 19-10-2019 05:30:00 10.8 C 9.29 g/m*3 10.8 C 1.6 km/h
68 19-10-2019 05:35:00 10.8 C 9.29 g/m*3 10.8 C 0 km/h
69 19-10-2019 05:40:00 10.8 C 9.29 g/m*3 10.8 C 0 km/h
70 19-10-2019 05:45:00 10.8 C 9.29 g/m*3 10.8 C 0 km/h
71 19-10-2019 05:50:00 10.8 C 9.19 g/m*3 10.8 C 0 km/h
72 19-10-2019 05:55:00 10.8 C 9.19 g/m*3 10.8 C 0 km/h
73 19-10-2019 06:00:00 10.8 C 9.19 g/m*3 10.8 C 0 km/h
74 19-10-2019 06:05:00 10.8 C 9.19 g/m*3 10.8 C 0 km/h
75 19-10-2019 06:10:00 10.8 C 9.29 g/m*3 10.8 C 0 km/h
Sensor: Nr:Datum:Temp:Abs-Feuchte:Windchill:Wind:
Aussen-T/F 76 19-10-2019 06:15:00 10.8 C 9.29 g/m*3 10.8 C 0 km/h
77 19-10-2019 06:20:00 10.8 C 9.29 g/m*3 10.8 C 0 km/h
78 19-10-2019 06:25:00 10.7 C 9.13 g/m*3 10.7 C 0 km/h
79 19-10-2019 06:30:00 10.7 C 9.13 g/m*3 10.7 C 0 km/h
80 19-10-2019 06:35:00 10.7 C 9.13 g/m*3 10.7 C 0 km/h
81 19-10-2019 06:40:00 10.6 C 9.08 g/m*3 10.6 C 0 km/h
82 19-10-2019 06:45:00 10.6 C 9.17 g/m*3 10.6 C 0 km/h
83 19-10-2019 06:50:00 10.6 C 9.17 g/m*3 10.6 C 0 km/h
84 19-10-2019 06:55:00 10.6 C 9.17 g/m*3 10.6 C 0 km/h
85 19-10-2019 07:00:00 10.6 C 9.17 g/m*3 10.6 C 0 km/h
86 19-10-2019 07:05:00 10.6 C 9.17 g/m*3 10.6 C 0 km/h
87 19-10-2019 07:10:00 10.6 C 9.17 g/m*3 10.6 C 0 km/h
88 19-10-2019 07:15:00 10.6 C 9.17 g/m*3 10.6 C 0 km/h
89 19-10-2019 07:20:00 10.6 C 9.17 g/m*3 10.6 C 0 km/h
90 19-10-2019 07:25:00 10.6 C 9.17 g/m*3 10.6 C 0 km/h
91 19-10-2019 07:30:00 10.6 C 9.17 g/m*3 10.6 C 0 km/h
92 19-10-2019 07:35:00 10.6 C 9.17 g/m*3 10.6 C 0 km/h
93 19-10-2019 07:40:00 10.7 C 9.33 g/m*3 10.7 C 0 km/h
94 19-10-2019 07:45:00 10.7 C 9.33 g/m*3 10.7 C 0 km/h
95 19-10-2019 07:50:00 10.7 C 9.33 g/m*3 10.7 C 0 km/h
96 19-10-2019 07:55:00 10.8 C 9.39 g/m*3 10.8 C 0 km/h
97 19-10-2019 08:00:00 10.8 C 9.39 g/m*3 10.8 C 0 km/h
98 19-10-2019 08:05:00 10.8 C 9.39 g/m*3 10.8 C 0 km/h
99 19-10-2019 08:10:00 10.8 C 9.39 g/m*3 10.8 C 0 km/h
100 19-10-2019 08:15:00 10.8 C 9.39 g/m*3 10.8 C 0 km/h
Sensor: Nr:Datum:Temp:Abs-Feuchte:Windchill:Wind:
Aussen-T/F 101 19-10-2019 08:20:00 10.9 C 9.45 g/m*3 10.9 C 1.6 km/h
102 19-10-2019 08:25:00 11 C 9.51 g/m*3 11 C 1.6 km/h
103 19-10-2019 08:30:00 11.1 C 9.57 g/m*3 11.1 C 0 km/h
104 19-10-2019 08:35:00 11.2 C 9.63 g/m*3 11.2 C 0 km/h
105 19-10-2019 08:40:00 11.2 C 9.63 g/m*3 11.2 C 0 km/h
106 19-10-2019 08:45:00 11.3 C 9.69 g/m*3 11.3 C 0 km/h
107 19-10-2019 08:50:00 11.3 C 9.69 g/m*3 11.3 C 0 km/h
108 19-10-2019 08:55:00 11.4 C 9.75 g/m*3 11.4 C 0 km/h
109 19-10-2019 09:00:00 11.4 C 9.75 g/m*3 11.4 C 0 km/h
110 19-10-2019 09:05:00 11.5 C 9.81 g/m*3 11.5 C 0 km/h
111 19-10-2019 09:10:00 11.6 C 9.87 g/m*3 11.6 C 0 km/h
112 19-10-2019 09:15:00 11.6 C 9.87 g/m*3 11.6 C 1.6 km/h
113 19-10-2019 09:20:00 11.7 C 9.94 g/m*3 11.7 C 1.6 km/h
114 19-10-2019 09:25:00 11.8 C 9.89 g/m*3 11.8 C 1.6 km/h
115 19-10-2019 09:30:00 11.9 C 9.96 g/m*3 11.9 C 0 km/h
116 19-10-2019 09:35:00 12 C 10.02 g/m*3 12 C 0 km/h
117 19-10-2019 09:40:00 12.2 C 10.14 g/m*3 12.2 C 0 km/h
118 19-10-2019 09:45:00 12.2 C 10.14 g/m*3 12.2 C 0 km/h
119 19-10-2019 09:50:00 12.3 C 10.1 g/m*3 12.3 C 0 km/h
120 19-10-2019 09:55:00 12.3 C 10.1 g/m*3 12.3 C 0 km/h
121 19-10-2019 10:00:00 12.4 C 10.16 g/m*3 12.4 C 1.6 km/h
122 19-10-2019 10:05:00 12.6 C 10.18 g/m*3 12.6 C 4.8 km/h
123 19-10-2019 10:10:00 12.8 C 10.19 g/m*3 12.8 C 4.8 km/h
124 19-10-2019 10:15:00 12.8 C 10.19 g/m*3 12.8 C 1.6 km/h
125 19-10-2019 10:20:00 12.9 C 10.26 g/m*3 12.9 C 0 km/h
Sensor: Nr:Datum:Temp:Abs-Feuchte:Windchill:Wind:
Aussen-T/F 126 19-10-2019 10:25:00 13.1 C 10.27 g/m*3 13.1 C 0 km/h
127 19-10-2019 10:30:00 13.2 C 10.33 g/m*3 13.2 C 1.6 km/h
128 19-10-2019 10:35:00 13.2 C 10.33 g/m*3 13.2 C 0 km/h
129 19-10-2019 10:40:00 13.3 C 10.4 g/m*3 13.3 C 0 km/h
130 19-10-2019 10:45:00 13.3 C 10.4 g/m*3 13.3 C 0 km/h
131 19-10-2019 10:50:00 13.3 C 10.4 g/m*3 13.3 C 0 km/h
132 19-10-2019 10:55:00 13.4 C 10.46 g/m*3 13.4 C 0 km/h
133 19-10-2019 11:00:00 13.5 C 10.64 g/m*3 13.5 C 1.6 km/h
134 19-10-2019 11:05:00 13.5 C 10.64 g/m*3 13.5 C 1.6 km/h
135 19-10-2019 11:10:00 13.6 C 10.83 g/m*3 13.6 C 1.6 km/h
136 19-10-2019 11:15:00 13.7 C 10.89 g/m*3 13.7 C 1.6 km/h
137 19-10-2019 11:20:00 13.7 C 10.89 g/m*3 13.7 C 1.6 km/h
138 19-10-2019 11:25:00 13.7 C 10.89 g/m*3 13.7 C 0 km/h
139 19-10-2019 11:30:00 13.8 C 10.96 g/m*3 13.8 C 1.6 km/h
140 19-10-2019 11:35:00 13.8 C 10.96 g/m*3 13.8 C 11.3 km/h
141 19-10-2019 11:40:00 13.9 C 10.91 g/m*3 13.9 C 9.7 km/h
142 19-10-2019 11:45:00 14.1 C 11.04 g/m*3 14.1 C 3.2 km/h
143 19-10-2019 11:50:00 14.2 C 10.99 g/m*3 14.2 C 4.8 km/h
144 19-10-2019 11:55:00 14.4 C 11.13 g/m*3 14.4 C 1.6 km/h
145 19-10-2019 12:00:00 14.6 C 11.14 g/m*3 14.6 C 3.2 km/h
146 19-10-2019 12:05:00 14.8 C 11.15 g/m*3 14.8 C 3.2 km/h
147 19-10-2019 12:10:00 15.1 C 11.09 g/m*3 15.1 C 8.1 km/h
148 19-10-2019 12:15:00 15.2 C 11.29 g/m*3 15.2 C 3.2 km/h
149 19-10-2019 12:20:00 15.3 C 11.23 g/m*3 15.3 C 4.8 km/h
150 19-10-2019 12:25:00 15.5 C 11.24 g/m*3 15.5 C 4.8 km/h
Sensor: Nr:Datum:Temp:Abs-Feuchte:Windchill:Wind:
Aussen-T/F 151 19-10-2019 12:30:00 15.6 C 11.3 g/m*3 15.6 C 1.6 km/h
152 19-10-2019 12:35:00 15.7 C 11.37 g/m*3 15.7 C 3.2 km/h
153 19-10-2019 12:40:00 15.7 C 11.11 g/m*3 15.7 C 1.6 km/h
154 19-10-2019 12:45:00 15.8 C 11.31 g/m*3 15.8 C 4.8 km/h
155 19-10-2019 12:50:00 15.8 C 11.31 g/m*3 15.8 C 1.6 km/h
156 19-10-2019 12:55:00 15.8 C 11.31 g/m*3 15.8 C 0 km/h
157 19-10-2019 13:00:00 15.8 C 11.31 g/m*3 15.8 C 8.1 km/h
158 19-10-2019 13:05:00 15.9 C 11.24 g/m*3 15.9 C 3.2 km/h
159 19-10-2019 13:10:00 15.9 C 11.24 g/m*3 15.9 C 3.2 km/h
160 19-10-2019 13:15:00 16.1 C 11.38 g/m*3 16.1 C 4.8 km/h
161 19-10-2019 13:20:00 16.2 C 11.31 g/m*3 16.2 C 8.1 km/h
162 19-10-2019 13:25:00 16.2 C 11.31 g/m*3 16.2 C 1.6 km/h
163 19-10-2019 13:30:00 16.2 C 11.17 g/m*3 16.2 C 9.7 km/h
164 19-10-2019 13:35:00 16.2 C 11.31 g/m*3 16.2 C 6.4 km/h
165 19-10-2019 13:40:00 16.3 C 11.52 g/m*3 16.3 C 1.6 km/h
166 19-10-2019 13:45:00 16.4 C 11.31 g/m*3 16.4 C 4.8 km/h
167 19-10-2019 13:50:00 16.5 C 11.37 g/m*3 16.5 C 1.6 km/h
168 19-10-2019 13:55:00 16.7 C 11.37 g/m*3 16.7 C 6.4 km/h
169 19-10-2019 14:00:00 16.8 C 11.44 g/m*3 16.8 C 4.8 km/h
170 19-10-2019 14:05:00 16.8 C 11.44 g/m*3 16.8 C 6.4 km/h
171 19-10-2019 14:55:00 17.1 C 11.35 g/m*3 17.1 C 11.3 km/h
172 19-10-2019 15:00:00 17.1 C 11.21 g/m*3 17.1 C 11.3 km/h
173 19-10-2019 15:05:00 17.1 C 11.5 g/m*3 17.1 C 0 km/h
174 19-10-2019 15:10:00 17.1 C 11.5 g/m*3 17.1 C 1.6 km/h
175 19-10-2019 15:15:00 17.2 C 11.42 g/m*3 17.2 C 3.2 km/h
Sensor: Nr:Datum:Temp:Abs-Feuchte:Windchill:Wind:
Aussen-T/F 176 19-10-2019 15:20:00 17.3 C 11.34 g/m*3 17.3 C 1.6 km/h
177 19-10-2019 15:25:00 17.3 C 11.34 g/m*3 17.3 C 9.7 km/h
178 19-10-2019 15:30:00 17.4 C 11.26 g/m*3 17.4 C 17.7 km/h
179 19-10-2019 15:35:00 17.4 C 11.56 g/m*3 17.4 C 3.2 km/h
180 19-10-2019 15:40:00 17.4 C 11.41 g/m*3 17.4 C 3.2 km/h
181 19-10-2019 15:45:00 17.3 C 11.2 g/m*3 17.3 C 9.7 km/h
182 19-10-2019 15:50:00 17.2 C 11.28 g/m*3 17.2 C 6.4 km/h
183 19-10-2019 15:55:00 17.1 C 10.92 g/m*3 17.1 C 8.1 km/h
184 19-10-2019 16:00:00 17.1 C 11.5 g/m*3 17.1 C 0 km/h
185 19-10-2019 16:05:00 17.1 C 11.5 g/m*3 17.1 C 0 km/h
186 19-10-2019 16:10:00 17.1 C 11.5 g/m*3 17.1 C 3.2 km/h
187 19-10-2019 16:15:00 17.1 C 11.06 g/m*3 17.1 C 1.6 km/h
188 19-10-2019 16:20:00 17.2 C 11.57 g/m*3 17.2 C 0 km/h
189 19-10-2019 16:25:00 17.2 C 11.42 g/m*3 17.2 C 0 km/h
190 19-10-2019 16:30:00 17.1 C 11.21 g/m*3 17.1 C 8.1 km/h
191 19-10-2019 16:35:00 17.1 C 11.35 g/m*3 17.1 C 0 km/h
192 19-10-2019 16:40:00 17.1 C 11.5 g/m*3 17.1 C 0 km/h
193 19-10-2019 16:45:00 17.2 C 11.42 g/m*3 17.2 C 0 km/h
194 19-10-2019 16:50:00 17.2 C 11.42 g/m*3 17.2 C 1.6 km/h
195 19-10-2019 16:55:00 17.3 C 11.34 g/m*3 17.3 C 3.2 km/h
196 19-10-2019 17:00:00 17.4 C 11.41 g/m*3 17.4 C 1.6 km/h
197 19-10-2019 17:05:00 17.3 C 11.34 g/m*3 17.3 C 4.8 km/h
198 19-10-2019 17:10:00 17.2 C 10.98 g/m*3 17.2 C 8.1 km/h
199 19-10-2019 17:15:00 17.2 C 11.57 g/m*3 17.2 C 0 km/h
200 19-10-2019 17:20:00 17.1 C 11.65 g/m*3 17.1 C 3.2 km/h
Sensor: Nr:Datum:Temp:Abs-Feuchte:Windchill:Wind:
Aussen-T/F 201 19-10-2019 17:25:00 17 C 11.58 g/m*3 17 C 0 km/h
202 19-10-2019 17:30:00 16.9 C 11.79 g/m*3 16.9 C 0 km/h
203 19-10-2019 17:35:00 16.7 C 11.8 g/m*3 16.7 C 0 km/h
204 19-10-2019 17:40:00 16.6 C 11.87 g/m*3 16.6 C 0 km/h
205 19-10-2019 17:45:00 16.4 C 11.72 g/m*3 16.4 C 0 km/h
206 19-10-2019 17:50:00 16.2 C 11.58 g/m*3 16.2 C 6.4 km/h
207 19-10-2019 17:55:00 16.1 C 11.79 g/m*3 16.1 C 0 km/h
208 19-10-2019 18:00:00 15.9 C 11.78 g/m*3 15.9 C 0 km/h
209 19-10-2019 18:05:00 15.8 C 11.71 g/m*3 15.8 C 0 km/h
210 19-10-2019 18:10:00 15.7 C 11.77 g/m*3 15.7 C 0 km/h
211 19-10-2019 18:15:00 15.5 C 11.76 g/m*3 15.5 C 0 km/h
212 19-10-2019 18:20:00 15.3 C 11.62 g/m*3 15.3 C 1.6 km/h
213 19-10-2019 18:25:00 15.2 C 11.68 g/m*3 15.2 C 1.6 km/h
214 19-10-2019 18:30:00 14.9 C 11.47 g/m*3 14.9 C 3.2 km/h
215 19-10-2019 18:35:00 14.8 C 11.53 g/m*3 14.8 C 1.6 km/h
216 19-10-2019 18:40:00 14.7 C 11.46 g/m*3 14.7 C 1.6 km/h
217 19-10-2019 18:45:00 14.6 C 11.51 g/m*3 14.6 C 0 km/h
218 19-10-2019 18:50:00 14.4 C 11.37 g/m*3 14.4 C 0 km/h
219 19-10-2019 19:00:00 14.3 C 11.3 g/m*3 14.3 C 0 km/h
220 19-10-2019 19:05:00 14.2 C 11.36 g/m*3 14.2 C 0 km/h
221 19-10-2019 19:10:00 14.2 C 11.36 g/m*3 14.2 C 0 km/h
222 19-10-2019 19:15:00 14.2 C 11.36 g/m*3 14.2 C 0 km/h
223 19-10-2019 19:20:00 14.1 C 11.41 g/m*3 14.1 C 0 km/h
224 19-10-2019 19:25:00 14.1 C 11.41 g/m*3 14.1 C 0 km/h
225 19-10-2019 19:30:00 14 C 11.34 g/m*3 14 C 0 km/h
Sensor: Nr:Datum:Temp:Abs-Feuchte:Windchill:Wind:
Aussen-T/F 226 19-10-2019 19:35:00 13.9 C 11.27 g/m*3 13.9 C 0 km/h
227 19-10-2019 19:40:00 13.9 C 11.27 g/m*3 13.9 C 0 km/h
228 19-10-2019 19:45:00 13.9 C 11.27 g/m*3 13.9 C 0 km/h
229 19-10-2019 19:50:00 13.8 C 11.2 g/m*3 13.8 C 0 km/h
230 19-10-2019 19:55:00 13.8 C 11.32 g/m*3 13.8 C 0 km/h
231 19-10-2019 20:00:00 13.8 C 11.2 g/m*3 13.8 C 0 km/h
232 19-10-2019 20:05:00 13.7 C 11.25 g/m*3 13.7 C 0 km/h
233 19-10-2019 20:10:00 13.7 C 11.25 g/m*3 13.7 C 0 km/h
234 19-10-2019 20:15:00 13.7 C 11.25 g/m*3 13.7 C 0 km/h
235 19-10-2019 20:20:00 13.7 C 11.25 g/m*3 13.7 C 0 km/h
236 19-10-2019 20:25:00 13.7 C 11.25 g/m*3 13.7 C 0 km/h
237 19-10-2019 20:30:00 13.6 C 11.18 g/m*3 13.6 C 0 km/h
238 19-10-2019 20:35:00 13.6 C 11.18 g/m*3 13.6 C 0 km/h
239 19-10-2019 20:40:00 13.5 C 11.11 g/m*3 13.5 C 0 km/h
240 19-10-2019 20:45:00 13.5 C 11.11 g/m*3 13.5 C 0 km/h
241 19-10-2019 20:50:00 13.5 C 11.11 g/m*3 13.5 C 0 km/h
242 19-10-2019 20:55:00 13.5 C 11.11 g/m*3 13.5 C 0 km/h
243 19-10-2019 21:00:00 13.5 C 11.11 g/m*3 13.5 C 1.6 km/h
244 19-10-2019 21:05:00 13.5 C 11.11 g/m*3 13.5 C 1.6 km/h
245 19-10-2019 21:10:00 13.5 C 11.11 g/m*3 13.5 C 0 km/h
246 19-10-2019 21:15:00 13.5 C 11.11 g/m*3 13.5 C 0 km/h
247 19-10-2019 21:20:00 13.4 C 11.16 g/m*3 13.4 C 1.6 km/h
248 19-10-2019 21:25:00 13.4 C 11.16 g/m*3 13.4 C 0 km/h
249 19-10-2019 21:30:00 13.4 C 11.16 g/m*3 13.4 C 1.6 km/h
250 19-10-2019 21:35:00 13.4 C 11.16 g/m*3 13.4 C 0 km/h
Sensor: Nr:Datum:Temp:Abs-Feuchte:Windchill:Wind:
Aussen-T/F 251 19-10-2019 21:40:00 13.4 C 11.16 g/m*3 13.4 C 0 km/h
252 19-10-2019 21:45:00 13.4 C 11.16 g/m*3 13.4 C 0 km/h
253 19-10-2019 21:50:00 13.4 C 11.16 g/m*3 13.4 C 0 km/h
254 19-10-2019 21:55:00 13.4 C 11.16 g/m*3 13.4 C 0 km/h
255 19-10-2019 22:00:00 13.3 C 11.09 g/m*3 13.3 C 0 km/h
256 19-10-2019 22:05:00 13.3 C 11.09 g/m*3 13.3 C 0 km/h
257 19-10-2019 22:10:00 13.3 C 11.09 g/m*3 13.3 C 0 km/h
258 19-10-2019 22:15:00 13.3 C 11.09 g/m*3 13.3 C 0 km/h
259 19-10-2019 22:20:00 13.3 C 11.09 g/m*3 13.3 C 0 km/h
260 19-10-2019 22:25:00 13.2 C 11.02 g/m*3 13.2 C 0 km/h
261 19-10-2019 22:30:00 13.2 C 11.02 g/m*3 13.2 C 0 km/h
262 19-10-2019 22:35:00 13.2 C 11.02 g/m*3 13.2 C 0 km/h
263 19-10-2019 22:40:00 13.2 C 11.02 g/m*3 13.2 C 0 km/h
264 19-10-2019 22:45:00 13.1 C 10.95 g/m*3 13.1 C 0 km/h
265 19-10-2019 22:50:00 13.1 C 10.95 g/m*3 13.1 C 0 km/h
266 19-10-2019 22:55:00 13.1 C 10.95 g/m*3 13.1 C 0 km/h
267 19-10-2019 23:00:00 13.1 C 10.95 g/m*3 13.1 C 0 km/h
268 19-10-2019 23:05:00 13.1 C 10.95 g/m*3 13.1 C 0 km/h
269 19-10-2019 23:10:00 13.1 C 10.95 g/m*3 13.1 C 0 km/h
270 19-10-2019 23:15:00 13.1 C 10.95 g/m*3 13.1 C 0 km/h
271 19-10-2019 23:20:00 13 C 10.89 g/m*3 13 C 0 km/h
272 19-10-2019 23:25:00 13 C 10.89 g/m*3 13 C 0 km/h
273 19-10-2019 23:30:00 13 C 10.89 g/m*3 13 C 0 km/h
274 19-10-2019 23:35:00 12.9 C 10.82 g/m*3 12.9 C 0 km/h
275 19-10-2019 23:40:00 13 C 10.89 g/m*3 13 C 0 km/h
Sensor: Nr:Datum:Temp:Abs-Feuchte:Windchill:Wind:
Aussen-T/F 276 19-10-2019 23:45:00 12.9 C 10.82 g/m*3 12.9 C 0 km/h
277 19-10-2019 23:50:00 12.9 C 10.82 g/m*3 12.9 C 0 km/h
278 19-10-2019 23:55:00 13 C 10.89 g/m*3 13 C 0 km/h

Legende:
   Min
   Max


Maximal/Minimal-Werte vom 19.10.2019 - 19.10.2019

Sensor Min Max Avg
Temp
(Aussen-T/F)
8.9 °C
19-10-2019  00:00:00
17.4 °C
19-10-2019  15:30:00
12.89 °C
Abs-Feuchte
(Aussen-T/F)
8.32 g/m*3
19-10-2019  00:00:00
11.87 g/m*3
19-10-2019  17:40:00
10.23 g/m*3
Windchill
(Aussen-T/F)
8.9 C
19-10-2019  00:00:00
17.4 C
19-10-2019  15:30:00
12.84 C

Die Daten stammen von einer Davis Vantage Pro 2 Wetter-Station und werden unter Linux mit der Software wview2wettercgi und aufbereitet. Alle Angaben erfolgen ohne Gewähr für ihre Vollständigkeit oder Richtigkeit.
Kontakt: Rainer Krienke krienke@uni-koblenz.de . Meine Webseiten an der Uni Koblenz oder privat.
Version: $Revision: 0.78 $